Time;durP1;ratioP1;P1;durP2;ratioP2;P2;SDS_P1;SDS_P2;PMS_P1;PMS_P2;Temp;Humidity;BMP_temperature;BMP_pressure;BME280_temperature;BME280_humidity;BME280_pressure;Samples;Min_cycle;Max_cycle;Signal;HPM_P1;HPM_P2
2022/08/02 00:02:06;;;;;;;3.03;1.70;;;21.10;58.90;;;;;;5059958;28;20055;-71
2022/08/02 00:04:33;;;;;;;2.58;1.55;;;21.00;54.70;;;;;;5054955;28;20072;-71
2022/08/02 00:07:00;;;;;;;5.15;1.88;;;22.00;60.50;;;;;;5066572;28;20400;-71
2022/08/02 00:09:27;;;;;;;3.92;1.42;;;21.00;54.60;;;;;;5068339;28;20076;-72
2022/08/02 00:11:53;;;;;;;3.28;1.50;;;21.00;54.60;;;;;;5050679;28;20098;-71
2022/08/02 00:14:20;;;;;;;3.92;1.80;;;20.90;59.30;;;;;;5052188;28;20493;-71
2022/08/02 00:16:47;;;;;;;3.20;1.40;;;21.00;54.70;;;;;;5062806;28;20062;-72
2022/08/02 00:19:15;;;;;;;2.63;1.50;;;21.00;54.60;;;;;;5060866;28;20057;-72
2022/08/02 00:21:41;;;;;;;4.45;1.60;;;21.00;54.60;;;;;;5069145;28;20385;-71
2022/08/02 00:24:08;;;;;;;2.22;1.45;;;21.40;59.30;;;;;;5067702;28;20120;-71
2022/08/02 00:26:35;;;;;;;2.42;1.50;;;21.00;54.70;;;;;;5051929;28;20052;-73
2022/08/02 00:29:02;;;;;;;2.75;1.65;;;21.00;54.60;;;;;;5051896;28;20052;-73
2022/08/02 00:31:29;;;;;;;3.30;1.40;;;21.20;59.60;;;;;;5050484;28;20127;-73
2022/08/02 00:33:55;;;;;;;3.22;1.42;;;21.00;54.70;;;;;;5051040;28;20052;-73
2022/08/02 00:36:23;;;;;;;1.45;1.23;;;21.00;54.70;;;;;;5055216;28;20053;-73
2022/08/02 00:38:50;;;;;;;1.90;1.20;;;20.90;54.60;;;;;;5071804;28;20055;-73
2022/08/02 00:41:18;;;;;;;3.75;1.40;;;20.80;58.80;;;;;;5070572;28;20066;-71
2022/08/02 00:43:44;;;;;;;3.03;1.52;;;20.90;54.60;;;;;;5070715;28;20050;-73
2022/08/02 00:46:11;;;;;;;3.70;1.52;;;20.60;58.40;;;;;;5070630;28;20060;-72
2022/08/02 00:48:38;;;;;;;2.78;1.40;;;20.90;54.60;;;;;;5070313;28;20059;-72
2022/08/02 00:51:05;;;;;;;3.00;1.45;;;20.90;54.60;;;;;;5070139;28;20058;-72
2022/08/02 00:53:33;;;;;;;2.45;1.30;;;20.10;59.70;;;;;;5070660;28;20052;-71
2022/08/02 00:56:00;;;;;;;2.53;1.60;;;19.60;60.00;;;;;;5070512;28;20052;-73
2022/08/02 00:58:27;;;;;;;2.95;1.48;;;20.80;54.60;;;;;;5070453;28;20060;-73
2022/08/02 01:00:56;;;;;;;4.65;1.60;;;20.80;59.50;;;;;;5053559;28;20056;-73
2022/08/02 01:03:23;;;;;;;2.60;1.20;;;20.80;54.60;;;;;;5070267;28;20053;-71
2022/08/02 01:05:49;;;;;;;2.85;1.50;;;20.90;59.20;;;;;;5070321;28;20472;-71
2022/08/02 01:08:16;;;;;;;4.65;1.70;;;20.80;54.70;;;;;;5070294;28;20059;-71
2022/08/02 01:10:44;;;;;;;2.13;1.42;;;20.70;58.50;;;;;;5071172;28;20078;-71
2022/08/02 01:13:11;;;;;;;4.45;1.65;;;19.90;60.30;;;;;;5063130;28;20067;-71
2022/08/02 01:15:40;;;;;;;3.95;1.40;;;20.90;59.80;;;;;;5050358;28;20489;-73
2022/08/02 01:18:12;;;;;;;3.55;1.63;;;20.70;60.10;;;;;;5053404;28;20135;-73
2022/08/02 01:20:50;;;;;;;2.20;1.40;;;21.10;59.10;;;;;;5054300;28;20416;-71
2022/08/02 01:23:31;;;;;;;2.92;1.60;;;20.70;54.70;;;;;;5070187;28;20086;-72
2022/08/02 01:26:08;;;;;;;3.10;1.50;;;20.70;54.60;;;;;;5070095;28;20060;-71
2022/08/02 01:28:37;;;;;;;2.55;1.50;;;20.80;59.40;;;;;;5070287;28;20140;-71
2022/08/02 01:31:15;;;;;;;2.00;1.30;;;20.70;59.60;;;;;;5059320;28;20088;-73
2022/08/02 01:33:44;;;;;;;2.88;1.50;;;20.70;54.70;;;;;;5064777;28;20059;-73
2022/08/02 01:36:13;;;;;;;3.30;1.73;;;20.70;54.70;;;;;;5059016;28;20053;-71
2022/08/02 01:38:41;;;;;;;2.13;1.40;;;20.60;54.60;;;;;;5069744;28;20052;-72
2022/08/02 01:41:09;;;;;;;2.35;1.38;;;20.20;58.90;;;;;;5055139;28;20135;-71
2022/08/02 01:43:37;;;;;;;3.33;1.60;;;20.70;54.70;;;;;;5049837;28;20061;-71
2022/08/02 01:46:04;;;;;;;3.17;1.40;;;20.70;54.60;;;;;;5050158;28;20521;-71
2022/08/02 01:48:31;;;;;;;3.83;1.63;;;20.70;54.60;;;;;;5050963;28;20049;-71
2022/08/02 01:50:58;;;;;;;2.90;1.60;;;20.60;54.50;;;;;;5049814;28;20048;-71
2022/08/02 01:53:25;;;;;;;2.80;1.85;;;22.00;60.60;;;;;;5065677;28;20054;-71
2022/08/02 01:55:53;;;;;;;2.83;1.50;;;20.70;54.60;;;;;;5070106;28;20056;-71
2022/08/02 01:58:20;;;;;;;2.72;1.63;;;19.90;59.10;;;;;;5071045;28;20052;-72
2022/08/02 02:00:48;;;;;;;2.45;1.50;;;20.70;54.50;;;;;;5069523;28;20574;-71
2022/08/02 02:03:17;;;;;;;2.40;1.45;;;20.70;54.40;;;;;;5070060;28;20054;-71
2022/08/02 02:05:44;;;;;;;3.00;2.03;;;20.80;60.10;;;;;;5069603;28;20059;-72
2022/08/02 02:08:11;;;;;;;4.00;1.70;;;20.70;58.70;;;;;;5070621;28;20063;-73
2022/08/02 02:10:38;;;;;;;2.90;1.50;;;20.60;58.50;;;;;;5073062;28;20143;-73
2022/08/02 02:13:06;;;;;;;3.35;1.73;;;20.70;60.20;;;;;;5073592;28;20052;-71
2022/08/02 02:15:33;;;;;;;3.75;2.00;;;20.70;54.30;;;;;;5073412;28;20083;-71
2022/08/02 02:18:02;;;;;;;2.88;1.67;;;20.70;59.70;;;;;;5073377;28;20062;-70
2022/08/02 02:20:28;;;;;;;2.28;1.55;;;20.80;58.60;;;;;;5072943;28;20135;-72
2022/08/02 02:22:55;;;;;;;3.85;1.90;;;21.90;55.50;;;;;;5073262;28;20049;-72
2022/08/02 02:25:22;;;;;;;3.55;1.52;;;20.40;59.30;;;;;;5073052;28;20051;-71
2022/08/02 02:27:52;;;;;;;2.80;1.75;;;20.60;54.20;;;;;;5074299;28;20131;-71
2022/08/02 02:30:19;;;;;;;3.10;1.88;;;20.60;54.20;;;;;;5054203;28;20080;-71
2022/08/02 02:32:46;;;;;;;3.13;1.70;;;20.60;58.90;;;;;;5052873;28;20059;-71
2022/08/02 02:35:14;;;;;;;3.95;1.60;;;21.50;60.80;;;;;;5064898;28;20052;-71
2022/08/02 02:37:43;;;;;;;3.63;1.90;;;20.60;54.20;;;;;;5072770;28;20060;-71
2022/08/02 02:40:10;;;;;;;2.83;1.77;;;20.70;58.40;;;;;;5072274;28;20060;-71
2022/08/02 02:42:37;;;;;;;5.13;1.60;;;20.50;59.80;;;;;;5055311;28;20061;-72
2022/08/02 02:45:04;;;;;;;4.07;1.83;;;20.60;54.20;;;;;;5054542;28;20048;-71
2022/08/02 02:47:31;;;;;;;3.22;1.60;;;20.50;54.20;;;;;;5062800;28;20059;-72
2022/08/02 02:49:58;;;;;;;2.70;1.70;;;20.60;54.20;;;;;;5053700;28;20156;-73
2022/08/02 02:52:27;;;;;;;3.13;1.80;;;20.90;59.60;;;;;;5071042;28;20152;-73
2022/08/02 02:54:53;;;;;;;2.58;1.63;;;20.50;54.10;;;;;;5073638;28;20062;-72
2022/08/02 02:57:20;;;;;;;3.40;1.63;;;20.70;54.20;;;;;;5073135;28;20052;-73
2022/08/02 02:59:47;;;;;;;2.83;1.60;;;20.40;59.40;;;;;;5073935;28;20088;-73
2022/08/02 03:02:14;;;;;;;2.40;1.73;;;20.00;59.10;;;;;;5073681;28;20049;-73
2022/08/02 03:04:41;;;;;;;3.25;1.60;;;21.30;60.60;;;;;;5054589;28;20049;-71
2022/08/02 03:07:08;;;;;;;2.63;1.67;;;19.70;59.80;;;;;;5053394;28;20087;-72
2022/08/02 03:09:36;;;;;;;4.05;1.80;;;20.50;60.00;;;;;;5052167;28;20137;-71
2022/08/02 03:12:03;;;;;;;2.88;1.83;;;20.50;54.00;;;;;;5051963;28;20128;-71
2022/08/02 03:14:30;;;;;;;3.67;1.67;;;20.20;58.40;;;;;;5052305;28;20079;-73
2022/08/02 03:16:56;;;;;;;2.08;1.50;;;20.50;53.90;;;;;;5052238;28;20052;-71
2022/08/02 03:19:24;;;;;;;3.53;1.80;;;20.50;58.70;;;;;;5053120;28;20049;-71
2022/08/02 03:21:51;;;;;;;3.70;1.85;;;20.50;54.00;;;;;;5051895;28;20053;-71
2022/08/02 03:24:17;;;;;;;3.97;1.70;;;20.60;57.80;;;;;;5051896;28;20053;-71
2022/08/02 03:26:45;;;;;;;4.68;1.73;;;20.50;53.90;;;;;;5052808;28;20051;-73
2022/08/02 03:29:12;;;;;;;2.75;2.03;;;20.50;58.90;;;;;;5052176;28;20140;-71
2022/08/02 03:31:40;;;;;;;2.63;1.55;;;20.50;53.90;;;;;;5051436;28;20084;-72
2022/08/02 03:34:07;;;;;;;3.58;1.90;;;20.50;53.90;;;;;;5052003;28;20052;-73
2022/08/02 03:36:34;;;;;;;3.05;1.70;;;19.20;58.70;;;;;;5052860;28;20405;-73
2022/08/02 03:39:01;;;;;;;3.53;1.70;;;19.80;57.70;;;;;;5051915;28;20063;-72
2022/08/02 03:41:27;;;;;;;3.00;1.95;;;20.20;58.20;;;;;;5070952;28;20407;-72
2022/08/02 03:43:55;;;;;;;2.92;1.70;;;20.20;58.80;;;;;;5071807;28;20135;-71
2022/08/02 03:46:23;;;;;;;3.22;1.70;;;20.10;59.10;;;;;;5071457;28;20054;-71
2022/08/02 03:48:50;;;;;;;3.65;1.90;;;21.50;58.90;;;;;;5052320;28;20083;-70
2022/08/02 03:51:17;;;;;;;5.10;2.10;;;20.40;53.90;;;;;;5059892;28;20057;-73
2022/08/02 03:53:44;;;;;;;4.25;2.03;;;20.40;58.70;;;;;;5067803;28;20054;-73
2022/08/02 03:56:11;;;;;;;3.75;2.13;;;20.40;53.80;;;;;;5057738;28;20052;-73
2022/08/02 03:58:37;;;;;;;3.88;2.10;;;20.40;53.60;;;;;;5060612;28;20124;-73
2022/08/02 04:01:06;;;;;;;3.88;2.00;;;20.50;57.70;;;;;;5063554;28;20135;-74
2022/08/02 04:03:32;;;;;;;4.47;2.22;;;20.40;53.60;;;;;;5071302;28;20056;-74
2022/08/02 04:05:59;;;;;;;4.00;1.90;;;20.40;53.70;;;;;;5072455;28;20044;-74
2022/08/02 04:08:26;;;;;;;3.95;1.80;;;20.30;54.00;;;;;;5072314;28;20075;-74
2022/08/02 04:13:37;;;;;;;2.55;1.83;;;20.40;54.50;;;;;;5052349;28;20128;-72
2022/08/02 04:16:08;;;;;;;3.75;1.95;;;20.20;54.60;;;;;;5056888;28;20048;-73
2022/08/02 04:18:38;;;;;;;2.67;1.75;;;20.20;54.70;;;;;;5062411;28;20057;-72
2022/08/02 04:21:08;;;;;;;3.80;1.70;;;19.70;59.10;;;;;;5057307;28;20048;-72
2022/08/02 04:23:35;;;;;;;6.25;2.13;;;20.20;55.10;;;;;;5034594;28;20573;-72
2022/08/02 04:26:02;;;;;;;3.00;1.80;;;20.20;55.20;;;;;;5050794;28;20055;-72
2022/08/02 04:28:29;;;;;;;2.60;2.00;;;20.20;55.30;;;;;;5051068;28;20147;-72
2022/08/02 04:30:55;;;;;;;4.88;1.90;;;20.20;60.60;;;;;;5050101;28;20053;-72
2022/08/02 04:33:23;;;;;;;2.83;1.77;;;20.20;55.50;;;;;;5050913;28;20601;-73
2022/08/02 04:35:50;;;;;;;2.28;1.70;;;20.30;59.60;;;;;;5060977;28;20053;-72
2022/08/02 04:38:17;;;;;;;4.00;2.20;;;19.30;59.50;;;;;;5057712;28;20056;-72
2022/08/02 04:40:51;;;;;;;4.85;1.98;;;19.80;59.50;;;;;;5068160;28;20131;-73
2022/08/02 04:43:17;;;;;;;3.78;1.70;;;20.20;55.80;;;;;;5070817;28;20524;-73
2022/08/02 04:45:44;;;;;;;4.30;2.22;;;19.50;60.90;;;;;;5071674;28;20048;-73
2022/08/02 04:48:11;;;;;;;5.03;2.00;;;20.10;55.70;;;;;;5067365;28;20056;-73
2022/08/02 04:50:39;;;;;;;3.92;2.25;;;20.40;59.90;;;;;;5050237;28;20056;-72
2022/08/02 04:53:06;;;;;;;3.22;1.90;;;19.80;60.20;;;;;;5050750;28;20057;-73
2022/08/02 04:55:32;;;;;;;4.55;1.80;;;20.20;61.80;;;;;;5052775;28;20072;-72
2022/08/02 04:57:59;;;;;;;4.68;1.98;;;20.20;55.70;;;;;;5052258;28;20057;-72
2022/08/02 05:00:26;;;;;;;3.65;1.88;;;20.10;60.70;;;;;;5054940;28;20072;-72
2022/08/02 05:02:54;;;;;;;3.33;1.80;;;20.20;62.00;;;;;;5070097;28;20063;-74
2022/08/02 05:05:21;;;;;;;3.72;2.03;;;20.10;55.70;;;;;;5062386;28;20132;-72
2022/08/02 05:07:49;;;;;;;4.15;1.85;;;20.20;55.80;;;;;;5050552;28;20140;-72
2022/08/02 05:10:15;;;;;;;4.90;1.98;;;20.00;59.80;;;;;;5051457;28;20413;-72
2022/08/02 05:12:42;;;;;;;3.80;2.20;;;20.20;55.70;;;;;;5055485;28;20131;-72
2022/08/02 05:15:11;;;;;;;4.40;2.25;;;20.10;61.50;;;;;;5069369;28;20135;-72
2022/08/02 05:17:37;;;;;;;4.10;2.00;;;20.20;55.80;;;;;;5059633;28;20128;-72
2022/08/02 05:20:05;;;;;;;4.60;1.85;;;20.20;55.70;;;;;;5055538;28;20485;-73
2022/08/02 05:22:32;;;;;;;2.75;2.00;;;20.20;60.10;;;;;;5063191;28;20045;-75
2022/08/02 05:25:00;;;;;;;3.55;1.80;;;20.20;62.30;;;;;;5051423;28;20071;-75
2022/08/02 05:27:26;;;;;;;4.72;2.10;;;20.60;60.70;;;;;;5057600;28;20127;-74
2022/08/02 05:29:53;;;;;;;5.00;2.20;;;21.00;61.60;;;;;;4154976;28;10000937;-74
2022/08/02 05:32:20;;;;;;;3.38;1.73;;;20.20;55.90;;;;;;5050348;28;20111;-74
2022/08/02 05:34:47;;;;;;;2.60;2.03;;;20.10;55.90;;;;;;5046573;28;20116;-75
2022/08/02 05:37:13;;;;;;;3.00;1.90;;;20.10;61.10;;;;;;5059938;28;20131;-75
2022/08/02 05:39:40;;;;;;;3.40;2.20;;;20.20;56.00;;;;;;5049764;28;20056;-74
2022/08/02 05:42:08;;;;;;;4.35;2.13;;;20.20;60.80;;;;;;5049533;28;20053;-74
2022/08/02 05:44:35;;;;;;;4.32;2.20;;;19.00;60.90;;;;;;5053721;28;20051;-76
2022/08/02 05:47:02;;;;;;;3.92;1.92;;;20.10;60.40;;;;;;5053230;28;20055;-75
2022/08/02 05:49:28;;;;;;;5.65;2.10;;;20.10;56.00;;;;;;5054644;28;20051;-73
2022/08/02 05:51:58;;;;;;;4.50;1.98;;;20.90;60.90;;;;;;5052785;28;20053;-72
2022/08/02 05:54:29;;;;;;;3.28;2.15;;;20.10;55.80;;;;;;5053201;28;20053;-75
2022/08/02 05:56:59;;;;;;;5.55;2.17;;;20.20;55.80;;;;;;5054605;28;20457;-75
2022/08/02 05:59:31;;;;;;;4.72;2.10;;;20.70;61.30;;;;;;5053663;28;20143;-72
2022/08/02 06:01:59;;;;;;;6.45;2.10;;;20.00;60.80;;;;;;5053429;28;20520;-73
2022/08/02 06:04:29;;;;;;;4.10;2.20;;;20.70;60.80;;;;;;5053673;28;20092;-72
2022/08/02 06:06:56;;;;;;;7.63;2.40;;;20.30;55.70;;;;;;5052946;28;20049;-75
2022/08/02 06:09:23;;;;;;;5.57;2.63;;;20.40;60.10;;;;;;5054408;28;20386;-74
2022/08/02 06:11:51;;;;;;;5.05;2.47;;;20.30;55.50;;;;;;5054109;28;20134;-73
2022/08/02 06:14:18;;;;;;;4.57;2.10;;;20.30;55.50;;;;;;5054508;28;20064;-73
2022/08/02 06:16:46;;;;;;;4.43;2.33;;;20.60;61.00;;;;;;5053222;28;20052;-74
2022/08/02 06:19:13;;;;;;;4.55;2.20;;;20.70;61.20;;;;;;5052967;28;20552;-75
2022/08/02 06:21:40;;;;;;;3.63;1.77;;;20.60;55.50;;;;;;5053914;28;20045;-73
2022/08/02 06:24:07;;;;;;;3.00;1.95;;;20.90;60.80;;;;;;5054348;28;20052;-75
2022/08/02 06:26:34;;;;;;;3.83;2.30;;;20.80;55.30;;;;;;5053916;28;20104;-75
2022/08/02 06:29:01;;;;;;;4.18;2.38;;;21.10;60.50;;;;;;5053148;28;20064;-75
2022/08/02 06:31:27;;;;;;;4.07;2.15;;;19.80;61.00;;;;;;5052846;28;20529;-75
2022/08/02 06:33:56;;;;;;;3.55;2.10;;;21.10;55.10;;;;;;5052479;28;20053;-73
2022/08/02 06:36:27;;;;;;;3.88;1.90;;;21.30;55.10;;;;;;5059788;28;20047;-74
2022/08/02 06:39:04;;;;;;;3.20;1.83;;;21.10;58.90;;;;;;5074000;28;20071;-75
2022/08/02 06:41:31;;;;;;;4.88;1.80;;;21.50;54.90;;;;;;5072295;28;20064;-72
2022/08/02 06:44:00;;;;;;;4.80;1.90;;;21.60;59.80;;;;;;5061200;28;20045;-73
2022/08/02 06:46:27;;;;;;;4.80;2.00;;;21.70;54.60;;;;;;5032698;28;20072;-74
2022/08/02 06:48:54;;;;;;;4.28;1.88;;;21.70;59.60;;;;;;5042959;28;20056;-75
2022/08/02 06:51:22;;;;;;;5.38;1.77;;;21.80;54.30;;;;;;5052498;28;20136;-74
2022/08/02 06:53:49;;;;;;;4.13;2.05;;;22.10;58.10;;;;;;5051408;28;20144;-74
2022/08/02 06:56:16;;;;;;;5.03;1.98;;;22.00;54.10;;;;;;5052502;28;20098;-74
2022/08/02 06:58:42;;;;;;;3.72;1.75;;;22.00;53.90;;;;;;5053498;28;20081;-75
2022/08/02 07:01:09;;;;;;;3.42;1.70;;;22.10;53.90;;;;;;5048627;28;20053;-75
2022/08/02 07:03:36;;;;;;;3.58;1.75;;;22.10;53.80;;;;;;5033747;28;20085;-75
2022/08/02 07:06:03;;;;;;;4.05;1.63;;;22.20;53.80;;;;;;5033591;28;20046;-71
2022/08/02 07:08:31;;;;;;;4.75;2.25;;;22.40;59.00;;;;;;5032617;28;20149;-73
2022/08/02 07:10:59;;;;;;;4.32;1.50;;;22.20;58.40;;;;;;5034604;28;20107;-72
2022/08/02 07:13:26;;;;;;;4.72;1.67;;;22.40;59.10;;;;;;5052493;28;20079;-72
2022/08/02 07:15:53;;;;;;;3.70;1.92;;;22.00;57.80;;;;;;5052320;28;20055;-72
2022/08/02 07:18:20;;;;;;;3.55;2.00;;;22.40;53.80;;;;;;5052159;28;20055;-73
2022/08/02 07:20:47;;;;;;;4.28;2.30;;;22.30;58.60;;;;;;5051583;28;20432;-73
2022/08/02 07:23:14;;;;;;;5.88;1.95;;;22.60;58.50;;;;;;5053427;28;20055;-71
2022/08/02 07:25:42;;;;;;;4.53;1.98;;;22.40;53.70;;;;;;5053121;28;20044;-71
2022/08/02 07:28:09;;;;;;;5.57;2.15;;;22.50;53.80;;;;;;5052706;28;20048;-72
2022/08/02 07:30:36;;;;;;;3.95;1.75;;;22.80;57.50;;;;;;5051661;28;20132;-71
2022/08/02 07:33:02;;;;;;;2.67;1.60;;;22.50;53.70;;;;;;5052063;28;20060;-71
2022/08/02 07:35:29;;;;;;;4.13;1.58;;;22.70;59.30;;;;;;5051661;28;20059;-71
2022/08/02 07:37:56;;;;;;;2.50;1.52;;;22.60;53.70;;;;;;5048576;28;20060;-72
2022/08/02 07:40:23;;;;;;;3.33;1.65;;;22.80;57.80;;;;;;5031741;28;20509;-72
2022/08/02 07:42:51;;;;;;;3.47;1.55;;;23.40;59.70;;;;;;5036581;28;20481;-71
2022/08/02 07:45:18;;;;;;;3.55;1.45;;;22.80;54.20;;;;;;5055841;28;20102;-71
2022/08/02 07:47:45;;;;;;;2.78;1.60;;;22.80;53.60;;;;;;5060603;28;20055;-73
2022/08/02 07:50:13;;;;;;;6.15;1.70;;;22.70;59.10;;;;;;5060798;28;20059;-71
2022/08/02 07:52:40;;;;;;;3.25;1.50;;;23.50;58.30;;;;;;5058265;28;20135;-71
2022/08/02 07:55:08;;;;;;;3.08;1.60;;;22.90;53.50;;;;;;5051459;28;20055;-73
2022/08/02 07:57:35;;;;;;;3.33;1.63;;;22.90;53.50;;;;;;5051385;28;20081;-72
2022/08/02 08:00:03;;;;;;;3.83;1.70;;;22.80;57.90;;;;;;5047789;28;20056;-73
2022/08/02 08:02:30;;;;;;;3.42;1.40;;;24.00;59.30;;;;;;5032266;28;20387;-72
2022/08/02 08:04:57;;;;;;;4.22;1.50;;;23.00;53.50;;;;;;5031291;28;20144;-74
2022/08/02 08:07:24;;;;;;;4.40;2.03;;;23.00;53.50;;;;;;5032887;28;20127;-74
2022/08/02 08:09:51;;;;;;;4.93;2.10;;;23.30;53.60;;;;;;5051076;28;20505;-75
2022/08/02 08:12:17;;;;;;;4.05;1.98;;;23.00;53.50;;;;;;5061701;28;20052;-73
2022/08/02 08:14:44;;;;;;;4.82;2.30;;;23.70;58.70;;;;;;5052741;28;20049;-73
2022/08/02 08:17:12;;;;;;;4.45;2.13;;;23.10;53.50;;;;;;5050296;28;20065;-73
2022/08/02 08:19:39;;;;;;;5.50;2.20;;;23.10;53.40;;;;;;5051046;28;20136;-73
2022/08/02 08:22:06;;;;;;;6.70;2.72;;;23.10;53.40;;;;;;5058811;28;20140;-73
2022/08/02 08:24:33;;;;;;;4.53;2.15;;;22.70;58.50;;;;;;5070984;28;20082;-73
2022/08/02 08:26:59;;;;;;;7.07;3.13;;;23.20;53.40;;;;;;5071778;28;20052;-75
2022/08/02 08:29:26;;;;;;;5.40;2.70;;;22.30;58.50;;;;;;5070700;28;20428;-73
2022/08/02 08:31:53;;;;;;;11.02;2.72;;;23.40;58.50;;;;;;5070857;28;20095;-73
2022/08/02 08:34:22;;;;;;;5.00;2.63;;;23.30;53.30;;;;;;5071998;28;20131;-74
2022/08/02 08:36:49;;;;;;;6.18;2.38;;;23.10;59.30;;;;;;5058336;28;20064;-72
2022/08/02 08:39:16;;;;;;;4.50;2.22;;;23.30;53.20;;;;;;5049502;28;20140;-73
2022/08/02 08:41:43;;;;;;;4.10;2.22;;;23.00;58.40;;;;;;5048697;28;20041;-73
2022/08/02 08:44:10;;;;;;;6.57;2.28;;;23.20;58.00;;;;;;5050114;28;20091;-73
2022/08/02 08:46:37;;;;;;;4.88;2.50;;;23.30;53.10;;;;;;5049556;28;20056;-73
2022/08/02 08:49:09;;;;;;;4.00;2.20;;;23.30;57.40;;;;;;5047455;28;20477;-74
2022/08/02 08:51:38;;;;;;;3.33;1.73;;;22.50;58.10;;;;;;5050577;28;20056;-73
2022/08/02 08:54:05;;;;;;;4.78;2.10;;;23.30;57.90;;;;;;5050072;28;20072;-73
2022/08/02 08:56:32;;;;;;;4.90;2.17;;;23.30;57.90;;;;;;5049769;28;20464;-73
2022/08/02 08:58:59;;;;;;;4.60;2.08;;;23.50;53.10;;;;;;5050105;28;20136;-73
2022/08/02 09:01:26;;;;;;;4.07;1.80;;;24.50;59.20;;;;;;5050167;28;20057;-73
2022/08/02 09:03:52;;;;;;;3.45;1.90;;;23.50;53.10;;;;;;5054624;28;20425;-74
2022/08/02 09:06:19;;;;;;;3.45;1.88;;;23.50;53.10;;;;;;5070427;28;20058;-72
2022/08/02 09:08:47;;;;;;;3.42;1.75;;;23.50;58.50;;;;;;5071317;28;20385;-70
2022/08/02 09:11:15;;;;;;;3.65;1.85;;;23.20;58.10;;;;;;5070233;28;20132;-71
2022/08/02 09:13:49;;;;;;;3.75;1.80;;;23.60;53.10;;;;;;5070269;28;20052;-70
2022/08/02 09:16:15;;;;;;;3.93;2.10;;;23.50;56.10;;;;;;5071664;28;20052;-71
2022/08/02 09:18:43;;;;;;;5.20;2.03;;;22.80;57.30;;;;;;5061457;28;20473;-71
2022/08/02 09:21:10;;;;;;;4.57;1.90;;;23.50;57.90;;;;;;5034028;28;20483;-71
2022/08/02 09:23:38;;;;;;;3.65;1.60;;;23.60;53.00;;;;;;5035416;28;20064;-70
2022/08/02 09:26:07;;;;;;;2.83;1.50;;;23.70;59.50;;;;;;5035408;28;20509;-71
2022/08/02 09:28:35;;;;;;;2.47;1.55;;;23.60;53.00;;;;;;5034276;28;20570;-71
2022/08/02 09:31:07;;;;;;;3.03;1.67;;;23.60;58.30;;;;;;5034318;28;20053;-71
2022/08/02 09:33:34;;;;;;;6.07;1.60;;;23.30;57.20;;;;;;5063710;28;20048;-71
2022/08/02 09:36:02;;;;;;;2.75;1.60;;;23.60;53.00;;;;;;5073951;28;20139;-70
2022/08/02 09:38:28;;;;;;;3.78;1.40;;;23.60;53.00;;;;;;5073698;28;20072;-73
2022/08/02 09:40:55;;;;;;;1.85;1.38;;;23.80;59.30;;;;;;5058711;28;20049;-72
2022/08/02 09:43:34;;;;;;;2.53;1.50;;;23.60;53.00;;;;;;5053371;28;20543;-73
2022/08/02 09:46:10;;;;;;;3.03;1.90;;;23.70;57.40;;;;;;5054957;28;20053;-71
2022/08/02 09:48:49;;;;;;;2.25;1.40;;;23.60;59.10;;;;;;5053204;28;20052;-73
2022/08/02 09:51:18;;;;;;;3.72;1.30;;;23.60;53.00;;;;;;5051460;28;20049;-73
2022/08/02 09:53:46;;;;;;;2.88;1.45;;;23.60;53.00;;;;;;5055025;28;20049;-72
2022/08/02 09:56:13;;;;;;;3.33;1.40;;;23.60;53.00;;;;;;5053995;28;20061;-74
2022/08/02 09:58:41;;;;;;;2.95;1.45;;;23.60;53.00;;;;;;5053243;28;20143;-72
2022/08/02 10:01:07;;;;;;;2.47;1.50;;;23.60;53.00;;;;;;5061819;28;20076;-75
2022/08/02 10:03:34;;;;;;;4.78;1.60;;;24.00;58.90;;;;;;5073531;28;20056;-75
2022/08/02 10:06:01;;;;;;;1.85;1.30;;;24.10;58.40;;;;;;5072841;28;20057;-75
2022/08/02 10:08:28;;;;;;;2.88;1.33;;;23.60;53.00;;;;;;5072661;28;20489;-75
2022/08/02 10:11:00;;;;;;;3.55;1.55;;;23.60;53.00;;;;;;5073182;28;20509;-74
2022/08/02 10:13:28;;;;;;;5.20;1.40;;;24.20;58.80;;;;;;5062606;28;20055;-72
2022/08/02 10:15:57;;;;;;;2.55;1.20;;;23.50;53.00;;;;;;5051933;28;20139;-74
2022/08/02 10:18:23;;;;;;;3.13;1.70;;;23.50;53.00;;;;;;5055997;28;20413;-73
2022/08/02 10:20:51;;;;;;;3.47;1.40;;;23.70;57.70;;;;;;5052132;28;20440;-73
2022/08/02 10:23:18;;;;;;;4.03;1.50;;;23.50;53.20;;;;;;5052925;28;20053;-73
2022/08/02 10:25:45;;;;;;;2.35;1.20;;;23.50;53.10;;;;;;5054309;28;20051;-73
2022/08/02 10:28:11;;;;;;;2.42;1.60;;;23.50;53.20;;;;;;5051930;28;20128;-74
2022/08/02 10:30:40;;;;;;;2.30;1.52;;;23.60;56.60;;;;;;5052054;28;20544;-73
2022/08/02 10:33:09;;;;;;;1.50;1.30;;;23.50;53.20;;;;;;5069738;28;20055;-73
2022/08/02 10:35:37;;;;;;;1.30;1.20;;;23.50;53.20;;;;;;5073266;28;20052;-73
2022/08/02 10:38:06;;;;;;;1.80;1.48;;;23.50;53.30;;;;;;5066817;28;20398;-73
2022/08/02 10:40:46;;;;;;;2.53;1.30;;;23.20;56.20;;;;;;5052371;28;20060;-73
2022/08/02 10:43:13;;;;;;;1.42;1.13;;;23.50;57.50;;;;;;5052765;28;20111;-73
2022/08/02 10:45:40;;;;;;;1.50;1.10;;;23.50;53.30;;;;;;5067059;28;20048;-73
2022/08/02 10:48:10;;;;;;;1.58;1.13;;;23.50;53.30;;;;;;5058679;28;20083;-73
2022/08/02 10:50:58;;;;;;;1.83;1.20;;;23.70;56.90;;;;;;5052318;28;20053;-73
2022/08/02 10:53:26;;;;;;;2.05;1.10;;;23.70;53.40;;;;;;5052059;28;20083;-73
2022/08/02 10:55:54;;;;;;;3.65;1.20;;;23.50;53.40;;;;;;5052628;28;20084;-73
2022/08/02 10:58:21;;;;;;;4.78;1.55;;;23.50;53.40;;;;;;5057617;28;20083;-73
2022/08/02 11:00:48;;;;;;;1.73;1.10;;;23.20;57.20;;;;;;5056126;28;20068;-73
2022/08/02 11:03:35;;;;;;;2.03;1.35;;;23.50;53.40;;;;;;5032643;28;20061;-73
2022/08/02 11:06:02;;;;;;;1.48;1.20;;;23.10;58.40;;;;;;5032791;28;20232;-73
2022/08/02 11:08:29;;;;;;;1.77;1.10;;;23.00;53.20;;;;;;5033589;28;20128;-73
2022/08/02 11:10:58;;;;;;;2.55;1.15;;;23.40;53.40;;;;;;5033190;28;20046;-73
2022/08/02 11:13:26;;;;;;;2.03;1.20;;;23.40;53.50;;;;;;5032181;28;20060;-73
2022/08/02 11:15:55;;;;;;;1.88;1.00;;;23.40;53.50;;;;;;5035698;28;20053;-73
2022/08/02 11:18:23;;;;;;;3.25;1.80;;;24.20;58.70;;;;;;5053472;28;20494;-73
2022/08/02 11:21:21;;;;;;;1.30;1.20;;;23.40;53.50;;;;;;5051752;28;20088;-73
2022/08/02 11:23:48;;;;;;;2.20;1.23;;;23.40;53.60;;;;;;5052299;28;20056;-73
2022/08/02 11:26:44;;;;;;;2.97;1.10;;;23.40;53.60;;;;;;5052408;28;20148;-73
2022/08/02 11:29:10;;;;;;;2.08;1.10;;;23.40;58.70;;;;;;5062711;28;20053;-73
2022/08/02 11:31:42;;;;;;;1.60;0.93;;;23.40;53.60;;;;;;5072939;28;20076;-76
2022/08/02 11:34:09;;;;;;;2.45;1.20;;;24.30;59.10;;;;;;5071961;28;20048;-73
2022/08/02 11:36:46;;;;;;;1.67;1.13;;;23.40;53.70;;;;;;5062724;28;20053;-74
2022/08/02 11:39:13;;;;;;;2.05;1.38;;;23.40;53.70;;;;;;5053182;28;20131;-72
2022/08/02 11:41:40;;;;;;;4.10;1.80;;;23.40;53.80;;;;;;5051542;28;20140;-75
2022/08/02 11:44:07;;;;;;;9.20;2.42;;;23.50;58.00;;;;;;5048585;28;20490;-74
2022/08/02 11:46:33;;;;;;;6.60;2.67;;;23.40;53.80;;;;;;5032720;28;20132;-74
2022/08/02 11:49:12;;;;;;;7.55;2.50;;;23.40;53.90;;;;;;5031620;28;20050;-76
2022/08/02 11:51:38;;;;;;;10.63;2.55;;;23.40;54.00;;;;;;5031668;28;20410;-74
2022/08/02 11:54:06;;;;;;;8.75;2.50;;;24.70;59.30;;;;;;5031800;28;20049;-74
2022/08/02 11:56:34;;;;;;;10.05;2.47;;;22.20;58.70;;;;;;5039386;28;20118;-74
2022/08/02 11:59:01;;;;;;;7.88;2.80;;;23.40;54.70;;;;;;5054643;28;20127;-75
2022/08/02 12:01:28;;;;;;;8.10;2.60;;;23.40;54.10;;;;;;5070969;28;20080;-75
2022/08/02 12:03:59;;;;;;;8.02;2.63;;;23.40;54.10;;;;;;5072408;28;20056;-76
2022/08/02 12:06:27;;;;;;;6.70;2.33;;;23.40;54.10;;;;;;5071733;28;20063;-76
2022/08/02 12:08:59;;;;;;;6.57;2.30;;;23.50;54.10;;;;;;5072681;28;20048;-76
2022/08/02 12:11:27;;;;;;;5.22;2.40;;;24.40;58.70;;;;;;5063758;28;20049;-76
2022/08/02 12:13:54;;;;;;;6.50;2.53;;;23.50;54.20;;;;;;5052412;28;20131;-76
2022/08/02 12:19:22;;;;;;;8.32;2.70;;;23.50;54.10;;;;;;5051615;28;20045;-75
2022/08/02 12:21:49;;;;;;;6.15;2.17;;;23.50;54.10;;;;;;5052066;28;20056;-76
2022/08/02 12:24:27;;;;;;;5.57;1.98;;;23.60;54.20;;;;;;5052494;28;20128;-73
2022/08/02 12:26:55;;;;;;;7.32;2.50;;;23.50;54.10;;;;;;5065185;28;20087;-73
2022/08/02 12:29:32;;;;;;;4.65;2.10;;;23.90;58.80;;;;;;5072326;28;20044;-72
2022/08/02 12:31:59;;;;;;;4.13;1.92;;;23.60;54.10;;;;;;5070545;28;20048;-72
2022/08/02 12:34:26;;;;;;;4.70;2.38;;;23.60;54.10;;;;;;5072286;28;20129;-72
2022/08/02 12:37:03;;;;;;;6.00;2.40;;;23.70;59.40;;;;;;5071165;28;20137;-72
2022/08/02 12:39:38;;;;;;;5.43;2.50;;;23.60;54.20;;;;;;5069446;28;20135;-72
2022/08/02 12:42:14;;;;;;;5.00;2.42;;;23.60;54.20;;;;;;5047314;28;20136;-72
2022/08/02 12:44:50;;;;;;;4.30;2.10;;;23.70;59.80;;;;;;5032069;28;20470;-72
2022/08/02 12:47:17;;;;;;;3.72;2.22;;;23.50;58.80;;;;;;5032089;28;20049;-72
2022/08/02 12:49:43;;;;;;;5.43;2.33;;;23.60;54.20;;;;;;5030822;28;20132;-74
2022/08/02 12:52:20;;;;;;;4.00;1.90;;;23.60;58.60;;;;;;5031522;28;20471;-72
2022/08/02 12:54:48;;;;;;;5.13;2.20;;;23.80;58.70;;;;;;5033362;28;20053;-73
2022/08/02 12:57:17;;;;;;;3.45;2.00;;;23.60;54.30;;;;;;5072001;28;20401;-73